« 2018年1月 | トップページ | 2018年3月 »

2018年2月

2018/02/28

### RJNT log 201802 ###

### RJNT log 201802 ###

-- 2018/2/28 wed -----

RJTT-RJNT
ANA   /312 JA614A
ANA313/316 JA62AN
ANA315/    JA73AN
ANA   /320 JA73AN
ANA319/322 JA73AN
ANA321     JA8579

RJCC-RJNT
ANA    /1181 JA73AN
ANA1182      JA73AN

ZYTL-RJNT
CSN613/614 B-2296

RJTT-RJNW
ANA747/748 JA67AN
ANA749/750 JA54AN

-- 2018/2/27 tue -----

RJTT-RJNT
ANA   /312 JA606A
ANA313/316 JA54AN
ANA315/    JA52AN
ANA   /320 JA52AN
ANA319/322 JA52AN
ANA321     JA614A

RJCC-RJNT
ANA    /1181 JA52AN
ANA1182      JA52AN

ZSPD-RJNT
CSH825/826 B-5801

RJTT-RJNW
ANA747/748 JA56AN

ANA749/750 JA67AN

--2018/2/26 mon -----

RJTT-RJNT
ANA   /312 JA8670
ANA313/316 JA67AN
ANA315/    JA62AN
ANA   /320 JA62AN
ANA319/322 JA62AN
ANA321     JA606A

RJCC-RJNT
ANA    /1181 JA62AN
ANA1182      JA62AN

RCTP-RJNT
CAL170/171 B-18651


RJTT-RJNW
ANA747/748 JA84AN
ANA749/750 JA56AN

-- 2018/2/25 sun -----

RJTT-RJNT
ANA   /312 JA605A
ANA313/316 JA73AN
ANA315/    JA71AN
ANA   /320 JA71AN
ANA319/322 JA71AN
ANA321     JA8670

RJCC-RJNT
ANA    /1181 JA71AN
ANA1182      JA71AN


RCTP-RJNT
CAL170/171 B-18656

RJTT-RJNW
ANA747/748 JA80AN
ANA749/750 JA84AN

-- 2018/2/24 sat -----

RJTT-RJNT
ANA   /312 JA8677
ANA313/316 JA78AN
ANA315/   
JA69AN
ANA   /320 JA69AN
ANA319/322 JA54AN
ANA321     JA605A

RJCC-RJNT
ANA    /1181 JA69AN
ANA1182      JA69AN
 

ZYTL-RJNT
CSN613/614 B-2297

ZSPD-RJNT
CSH825/826 B-5260

RJTT-RJNW
ANA747/748 JA54AN
ANA749/750 JA80AN

-- 2018/2/23 fri -----

RJTT-RJNT
ANA   /312 JA607A
ANA313/316 JA80AN
ANA315/    JA78AN
ANA   /320 JA78AN
ANA319/322 JA78AN
ANA321     JA8677

RJCC-RJNT
ANA    /1181 JA78AN
ANA1182      JA78AN

RCTP-RJNT
CAL170/171 B-18655

RJTT-RJNW
ANA747/748 JA79AN
ANA749/750 JA54AN

-- 2018/2/22 thu -----

RJTT-RJNT
ANA   /312 JA8567
ANA313/316 JA75AN
ANA315/    JA56AN
ANA   /320 JA56AN
ANA319/322 JA56AN
ANA321     JA607A

RJCC-RJNT
ANA    /1181 JA58AN
ANA1182      JA58AN


RCTP-RJNT
CAL170/171 B-18661

RJTT-RJNW
ANA747/748 JA74AN
ANA749/750 JA79AN

-- 2018/2/21 wed -----

RJTT-RJNT
ANA   /312 JA607A
ANA313/316 JA04AN
ANA315/    JA86AN
ANA   /320 JA86AN
ANA319/322 JA86AN
ANA321     JA8567

RJCC-RJNT
ANA    /1181 JA86AN
ANA1182      JA86AN

ZYTL-RJNT
CSN613/614 B-2297

RJTT-RJNW
ANA747/748 JA75AN
ANA749/750 JA62AN

-- 2018/2/20 tue -----

RJTT-RJNT
ANA   /312 JA8669
ANA313/316 JA73AN
ANA315/    JA55AN
ANA   /320 JA55AN
ANA319/322 JA55AN
ANA321     JA607A

RJCC-RJNT
ANA    /1181 JA55AN
ANA1182      JA55AN

ZSPD-RJNT
CSH825/826 B-5801

RJTT-RJNW
ANA747/748 JA63AN
ANA749/750 JA75AN

-- 2018/2/19 mon -----

RJTT-RJNT
ANA   /312 JA8670
ANA313/316 JA62AN
ANA315/    JA57AN
ANA   /320 JA57AN
ANA319/322 JA57AN
ANA321     JA8669

RJCC-RJNT
ANA    /1181 JA57AN
ANA1182      JA57AN

RCTP-RJNT
CAL170/171 B-18655

RJTT-RJNW
ANA747/747 JA58AN
ANA749/750 JA63AN

-- 2018/2/18 sun -----

RJTT-RJNT
ANA   /312 JA8568
ANA313/316 JA63AN
ANA315/    JA75AN
ANA   /320 JA75AN
ANA319/322 JA75AN
ANA321     JA8670

RJCC-RJNT
ANA    /1181 JA75AN
ANA1182      JA75AN


RCTP-RJNT
CAL170/171 B-18653

RJTT-RJNW
ANA747/748 JA54AN
ANA749/750 JA58AN

-- 2018/2/17 sat -----

RJTT-RJNT
ANA   /312 JA8567
ANA313/316 JA58AN
ANA315/    JA63AN
ANA   /320 JA63AN
ANA319/322 JA63AN
ANA321     JA8568

RJCC-RJNT
ANA    /1181 JA63AN
ANA1182      JA63AN
 

ZYTL-RJNT
CSN613/614 B-2296

ZSPD-RJNT
CSH825/826 B-5261

RJTT-RJNW
ANA747/748 JA72AN
ANA749/750 JA54AN

-- 2018/2/16 fri -----

RJTT-RJNT
ANA   /312 JA609A
ANA313/316 JA54AN
ANA315/    JA69AN
ANA   /320 JA69AN
ANA319/322 JA83AN
ANA321     JA8567

RJCC-RJNT
ANA    /1181 JA69AN
ANA1182      JA69AN

RCTP-RJNT
CAL170/171 B-18666

RJTT-RJNW
ANA747/748 JA75AN
ANA749/750 JA72AN

-- 2018/2/15 thu -----

RJTT-RJNT
ANA   /312 JA607A
ANA313/316 JA8342
ANA315/    JA58AN
ANA   /320 JA58AN
ANA319/322 JA58AN
ANA321     JA609A

RJCC-RJNT
ANA    /1181 JA58AN
ANA1182      JA58AN


RCTP-RJNT
CAL170/171 B-18651

RJTT-RJNW
ANA747/748 JA64AN
ANA749/750 JA75AN

-- 2018/2/14 wed -----

RJTT-RJNT
ANA   /312 JA8670
ANA313/316 JA63AN
ANA315/    JA72AN
ANA   /320 JA72AN
ANA319/322 JA72AN
ANA321     JA607A

RJCC-RJNT
ANA    /1181 JA72AN
ANA1182      JA72AN


ZYTL-RJNT
CSN613/614 B-2296

RJTT-RJNW
ANA747/748 JA83AN
ANA749/750 JA64AN

-- 2018/2/13 tue -----

RJTT-RJNT
ANA   /312 can
ANA313/316 can
ANA315/    can
ANA   /320 JA57AN
ANA319/322 JA57AN
ANA321     JA8670

RJCC-RJNT
ANA    /1181 can
ANA1182      JA57AN

ZSPD-RJNT
CSH825/826 B-5801

RJTT-RJNW
ANA747/748 JA63AN
ANA749/750 JA83AN

-- 2018/2/12 mon -----

RJTT-RJNT
ANA   /312 JA8670
ANA313/    JA83AN G/A ATB
ANA   /316 can
ANA315/    JA57AN G/A
ANA   /320 can
ANA319/322 can
ANA321     can

RJCC-RJNT
ANA    /1181 JA57AN
ANA1182      can

RCTP-RJNT
CAL170/171 B-18656 G/A


RJTT-RJNW
ANA747/748 JA52AN
ANA749/750 JA63AN

-- 2018/2/11 sun -----

RJTT-RJNT
ANA   /312 JA614A
ANA313/316 JA52AN
ANA315/    JA83AN
ANA   /320 JA83AN
ANA319/322 JA83AN
ANA321     JA8670

RJCC-RJNT
ANA    /1181 JA83AN
ANA1182      JA83AN


RCTP-RJNT
CAL170/171 B-18617

RJTT-RJNW
ANA747/748 JA78AN
ANA749/750 JA59AN

-- 2018/2/10 sat -----

RJTT-RJNT
ANA   /312 JA8342
ANA313/316 JA86AN
ANA315/    JA56AN
ANA   /320 JA56AN
ANA319/322 JA817A
ANA321     JA614A

RJCC-RJNT
ANA    /1181 JA56AN
ANA1182      JA56AN

ZYTL-RJNT
CSN613/614 B-2297

ZSPD-RJNT
CSH825/826 B-5260

RJTT-RJNW
ANA747/748 JA80AN
ANA749/750 JA79AN

-- 2018/2/9 fri -----

RJTT-RJNT
ANA   /312 JA8567
ANA313/316 JA79AN
ANA315/    JA84AN
ANA   /320 JA84AN
ANA319/322 JA817A
ANA321     JA8342

RJCC-RJNT
ANA    /1181 JA84AN
ANA1182      JA84AN

RCTP-RJNT
CAL170/171 B-18656


RJTT-RJNW
ANA747/748 JA62AN
ANA749/750 JA77AN

-- 2018/2/8 thu -----

RJTT-RJNT
ANA   /312 JA614A
ANA313/316 JA77AN
ANA315/    JA53AN
ANA   /320 JA53AN
ANA319/322 JA53AN
ANA321     JA8567

RJCC-RJNT
ANA    /1181 JA53AN
ANA1182      JA53AN


RCTP-RJNT
CAL170/171 B-18615

ZYTL-RJNT
CSN613/614 B-9912

RJTT-RJNW
ANA747/748 JA69AN
ANA749/750 JA62AN

-- 2018/2/7 wed -----

RJTT-RJNT
ANA   /312 can
ANA313/316 JA62AN
ANA315/    JA64AN
ANA   /320 JA64AN
ANA319/322 JA64AN
ANA321     JA614A

RJCC-RJNT
ANA    /1181 JA64AN
ANA1182      JA64AN

ZYTL-RJNT
CSN613/614 can


RJTT-RJNW
ANA747/    JA66AN ABT
ANA   /748 can
ANA749/750 JA69AN

-- 2018/2/6 tue -----

RJTT-RJNT
ANA   /312 can
ANA   /9062 JA66AN ferry
ANA313/316 can
ANA315/    can
ANA   /320 can
ANA319/322 can
ANA321     can

RJCC-RJNT
ANA    /1181 can
ANA1182      can

ZSPD-RJNT
CSH825/826 can

RJTT-RJNW
ANA747/748 JA65AN
ANA749/750 JA66AN

-- 2018/2/5 mon -----

RJTT-RJNT
ANA   /312 JA8568
ANA313     JA69AN EMERG ATB
ANA313/316 JA63AN
ANA315/    JA66AN
ANA   /320 JA66AN
ANA319/322 JA66AN
ANA321     can

RJCC-RJNT
ANA    /1181 JA66AN
ANA1182      JA66AN

RCTP-RJNT
CAL170/171 B-18652

RJTT-RJNW
ANA747/748 JA72AN
ANA749/750 JA65AN

-- 2018/2/4 sun -----

RJTT-RJNT
ANA   /312 JA8674
ANA313/316 JA71AN
ANA315/    JA55AN
ANA   /320 JA55AN
ANA319/322 JA55AN
ANA321     JA8568

RJCC-RJNT
ANA    /1181 JA55AN
ANA1182      JA55AN


RCTP-RJNT
CAL170/171 B-18665

RJTT-RJNW
ANA747/748 JA60AN
ANA749/750 JA54AN

-- 2018/2/3 sat -----

RJTT-RJNT
ANA   /312 JA8669
ANA313/316 JA54AN
ANA315/    JA83AN
ANA   /320 JA83AN
ANA319/322 JA83AN
ANA321     JA8674

RJCC-RJNT
ANA    /1181 JA78AN
ANA1182      JA78AN

ZYTL-RJNT
CSN613/614 B-2297

ZSPD-RJNT
CSH825/826 B-5260

RJTT-RJNW
ANA747/748 JA65AN

ANA749/750 JA60AN

-- 2018/2/2 fri -----

RJTT-RJNT
ANA   /312 JA8567
ANA313/316 JA60AN
ANA315/    JA54AN
ANA   /320 JA54AN
ANA319/322 JA54AN
ANA321     JA8669

RJCC-RJNT
ANA    /1181 JA54AN
ANA1182      JA54AN

RCTP-RJNT
CAL170/171 B-18665

RJTT-RJNW
ANA747/748 JA84AN
ANA749/750 JA65AN

-- 2018/2/1 thu -----

RJTT-RJNT
ANA   /312 JA8342
ANA313/316 JA58AN
ANA315/    JA60AN
ANA   /320 JA60AN
ANA319/322 JA60AN
ANA321     JA8567

RJCC-RJNT
ANA    /1181 JA60AN
ANA1182      JA60AN


RCTP-RJNT
CAL170/171 B-18651

RJTT-RJNW
ANA747/748 JA65AN
ANA749/750 JA72AN

-- 2018/02 --

| | コメント (0) | トラックバック (0)

2018/02/27

蔵出 エアフェスタ浜松2000 浜松飛行場 2000/10/29 sun

2005年にブログを始めて、一年強たったころ、たぶん飽きたんだろうなぁ。デジカメ記録を地道にブログに揚げていたのですが、途絶えてしまいました。記録をサルベージしながら、更新してきましたが、ここからは、未発表の蔵出しです。コンスタントにブログ更新を再開したのが、2009年なので、そこまでぽちぽち蔵出しして行きます。

20001029_rjnh_00t3

今にも雨の降りそうな浜松基地です。天候偵察の後は、航過飛行から始まっているよです。静浜からT-3がブーン。

20001029_rjnh_01h284555

28-4555 UH-60J / 54-4836 V-107II HAMAMATSU-ARS

20001029_rjnh_02u623004

62-3004 U-125A HAMAMATSU-ARS

20001029_rjnh_03t915518

91-5518 T-3 2TS

20001029_rjnh_04t255853

25-5853 T-1B 5TS

20001029_rjnh_05f208264

20-8264 F-1 2TS

20001029_rjnh_06r476903

47-6903 RF-4E 501SQ

20001029_rjnh_07t515057

51-5057 T-400 41FTS

20001029_rjnh_08rm04

RM04 EA-6B VMAQ-4 Bn.162939

20001029_rjnh_09bm00

BM00 F/A-18A VMFA-122

20001029_rjnh_10t1

アルプスさんの航過

20001029_rjnh_11e443462

44-3462 E-2C

20001029_rjnh_12f628872

62-8872 F-15J 2TS

20001029_rjnh_13t065631

06-5631 T-4 31SQ

20001029_rjnh_14f038504

03-8504 F-2A 2TS

20001029_rjnh_15f038504

チョークが全輪にしてあるのですね

20001029_rjnh_16ja22ar

JA22AR Pitts S-2C Special ロックさん待望の新型機。前月に登録されたばかりの新車でした。

20001029_rjnh_17t765760

76-5760 T-4 32SQ

20001029_rjnh_18f578354

57-8354 F-4EJk 2TS

20001029_rjnh_19f578354

Air Festa Hamamatsu 2000 ですね

20001029_rjnh_20e743503

AWACS展示飛行。この年から正式運用が始まりました。

20001029_rjnh_21e743503

74-3503 E-767J

20001029_rjnh_22rq

救難隊の展示 懐かしいコンビ

20001029_rjnh_23t665750

06-5760 T-4 32SQ

20001029_rjnh_24t165667

16-5667 T-4 32SQ

20001029_rjnh_25t265676

26-5676 T-4 32SQ

20001029_rjnh_26t365698

36-5698 T-4 32SQ

20001029_rjnh_27t065747

66-5747 T-4 31SQ

20001029_rjnh_28t4

地元機のマスフライト 臨時ASRだってのですね

20001029_rjnh_29f15

小松からF-15

20001029_rjnh_30t4

トレイル

20001029_rjnh_31f428830

42-8830 F-15J 2TS こんなんも撮っていました。

20001029_rjnh_32c381003

38-1003 C-1 403SQ

20001029_rjnh_33h274481

27-4481 CH-47J IRUMA-HT

20001029_rjnh_34t4

8機

20001029_rjnh_35t4

14機

20001029_rjnh_36t4

B-2っけ・・・

20001029_rjnh_37t765757

65-5757 T-4 31SQ

20001029_rjnh_38t565741

56-5741 T-4 31SQ

20001029_rjnh_39t665743

66-5743 T-4 31SQ

20001029_rjnh_40t4

展示列線に戻ってきました。そう言えば、ブルーいない・・・

この年7月に、金華山沖からの帰投時の事故により、飛行停止中となっていました。

20001029_rjnh_41c381003

帰投準備が始まりました。

20001029_rjnh_42bm00

ずーと、帰投を見送っていましたが、もう薄暗くなってきました。

20001029_rjnh_43rm04

この頃は、格納庫前までさがって、作業の邪魔にならなければ、最後まで見送りさせてくださいました。今では、考えらない時代でした。あの日までは・・・

| | コメント (0) | トラックバック (0)

2018/02/26

定点 富山空港 2018/2/25 sun

天気晴朗なれど、波高し・・

RJNT 242300Z VRB02KT 9999 FEW020 BKN/// M01/M03 Q1029

20180225_rjnt_00nittanmaru

日丹丸 JG5428

20180225_rjnt_01sea

鳶さんと鴎さんがギャラリー

20180225_rjnt_02ja73an

そうしてると、低めに通過

20180225_rjnt_03ja73an

MEDICって、こんな感じ 見えるかな

20180225_rjnt_04ja73an

ANA313 RJTT-RJNT JA73AN B737-881

20180225_rjnt_05ja73an

ヒート・ドライでギア・ダウン

20180225_rjnt_06oceanpridei

OCEAN PRIDE I は、まだ岸壁にいました

RJNT 250000Z VRB01KT 9999 FEW020 BKN/// 01/M02 Q1029

20180225_rjnt_07ja10ym

YMさんは、今日も忙しい

20180225_rjnt_08ja73an

空港ビルは看板工事中

20180225_rjnt_09ja73an

ANA316 RJNT-RJTT JA73AN B737-881

20180225_rjnt_10ja71an

RJNT 250200Z 35002KT 9999 FEW030 BKN/// 02/M03 Q1027

20180225_rjnt_11ja71an

ANA315 RJTT-RJNT JA71AN B737-881

20180225_rjnt_12ja71an

タッチ・ダウン

20180225_rjnt_13b18656

20180225_rjnt_14b18656

CAL170 RCTP-RJNT B-18656 B737-8MA

20180225_rjnt_15ja71an

20180225_rjnt_16ja71an

ANA1181 RJNT-RJCC JA71AN B737-881

20180225_rjnt_17ja970a

JA970A AW139 JCG

RJNT 250300Z VRB01KT 9999 FEW030 BKN/// 03/M04 Q1026

20180225_rjnt_18ja970a

まずは、らいちょうさんが、ゴクゴク

RJNT 250400Z VRB01KT 9999 FEW030 BKN/// 04/M05 Q1025

20180225_rjnt_19b18656

20180225_rjnt_20b18656

20180225_rjnt_21b18656

CAL171 RJNT-RCTP B-18656 B737-8MA

20180225_rjnt_22b18656

今日も、快適なフライトを

| | コメント (0) | トラックバック (0)

2018/02/25

ジュニア防災フェスティバル 富山県広域消防防災センター 2018/2/25 sun

今年もやってまいりました、ジュニア防災フェスティバル。連日の雪も大分消えて、上空にはPM2.5が流れ込んで、もやっとしていますが、穏やかな日和です。

RJNT 250400Z VRB01KT 9999 FEW030 BKN/// 04/M05 Q1025

20180225_bousaic_00fvc

ちびっ子に人気は、消防車体験乗車

20180225_bousaic_01fvc

バギーカーが展示

20180225_bousaic_02fvc

津波・大規模水害対策車は、東部消防組合の所属

20180225_bousaic_03fvc

かわいい潜水ヘルメット

20180225_bousaic_04fvc

高級キャンピングカーも展示されていました。

20180225_bousaic_05fvc

車内は、見るだけ。入室禁止。

RJNT 250400Z VRB01KT 9999 FEW030 BKN/// 04/M05 Q1025

20180225_bousaic_06fvc

さて、お目当ての防災へり訓練実演

20180225_bousaic_07fvc

射水市消防本部へ撤収です。

20180225_bousaic_08ja6768

富山空港からやってきました。

20180225_bousaic_09ja6768

会場を一周して・・・

20180225_bousaic_10ja6768

しんにゅう・・・

20180225_bousaic_11ja6768

ピタリ、鉄板の上に着地します。

20180225_bousaic_12ja6768

すぐ降機して、安全確保。

20180225_bousaic_13ja6768

まわりで見守る皆さん

20180225_bousaic_14fvc

東部消防も撤収

20180225_bousaic_15ja6768

地上展示の準備が終って、公開に一斉に走ります。

20180225_bousaic_16ja6768

防災航空隊員から説明です。

20180225_bousaic_17ja6768

いつもより多い人垣

20180225_bousaic_18ja6768

地上展示が終って、訓練展示へ

20180225_bousaic_19ja6768

エンジン・スタート

20180225_bousaic_20ja6768

すかさず、乗り込み

RJNT 250600Z 13003KT 060V230 9999 FEW050 BKN090 05/M03 Q1024

20180225_bousaic_21ja6768

上昇・上昇

20180225_bousaic_22ja6768

後方確認もバッチシ

20180225_bousaic_23ja6768

一旦、会場離脱して・・

20180225_bousaic_24ja6768

再進入・・ 運動性能の展示

20180225_bousaic_25ja6768

いつもより、余計に廻っております・・ おめでとうございます。?

20180225_bousaic_26ja6768

軸がぶれては、いけません

20180225_bousaic_27ja6768

りだつぅぅ

20180225_bousaic_28ja6768

20180225_bousaic_29ja6768

救助展示に移ります

20180225_bousaic_30ja6768

ロープを降ろして・・

20180225_bousaic_31ja6768

準備OK

20180225_bousaic_32ja6768

リペリング降下

20180225_bousaic_33ja6768

こんな高さでホバっています

20180225_bousaic_34ja6768

要救助者の準備もできて・・

20180225_bousaic_35ja6768

もう一人隊員が、ホイスト降下

20180225_bousaic_36ja6768

要救助者を吊り上げ準備

20180225_bousaic_37ja6768

ホイストが降りてきます

20180225_bousaic_38ja6768_2

吊り上げ準備中

20180225_bousaic_39ja6768

子供達は、ダウンウォッシュに大喜び!!

20180225_bousaic_40ja6768

吊り上げ、吊り上げ

20180225_bousaic_41ja6768

よいしょっと、

20180225_bousaic_42ja6768

収容

20180225_bousaic_43ja6768

救助隊員も吊り上げられて、さよーならー オリンピックも終わりですね。

20180225_bousaic_44ja6768

20180225_bousaic_45ja6768

最後のご挨拶に

20180225_bousaic_46ja6768

うぃうぃうぃうぃうぃー

20180225_bousaic_47ja6768

お馴染みのお手振り

20180225_bousaic_48ja6768

これからも、安全に。

20180225_0001x_2

20180225_0002x_2


| | コメント (0) | トラックバック (0)

2018/02/23

定点 富山空港 2018/2/23 fri

朝は寒いのですが、陽射しがだんだん春に向かっているようです。

RJNT 222300Z 16003KT 110V200 9999 -SHSN FEW010 SCT020 BKN060 02/M03 Q1021

20180223_rjnt_00oceanpridei

いつもの浜を覗いてみると・・・ 親鴨に小鴨のように

20180223_rjnt_01oceanpridei

OCEAN PRIDE I RUWO-JPFTX PA 3FOR3 自動車運搬船

船籍はパナマですが、塗装がまさしくロシア国旗・・

20180223_rjnt_02ja80an

と、思っていたら MEDIC

20180223_rjnt_03ja80an

ANA313 RJTT-RJNT JA80AN B737-881

20180223_rjnt_04ja80an

リクエストしてRW20上がり

RJNT 230000Z VRB02KT 9999 FEW020 03/M04 Q1021

20180223_rjnt_05ja80an

20180223_rjnt_06ja80an

ANA316 RJNT-RJTT JA80AN B737-881

20180223_rjnt_07ja80an

この駆け上がる角度が、イイね

RJNT 230100Z VRB01KT 9999 FEW020 SCT050 05/M04 Q1021

20180223_rjnt_08ja6507

JA6507 AS350B3 AKF

20180223_rjnt_09ja6193

JA6193 B206B AKF

20180223_rjnt_10ja78an

今日も、雪山登山

20180223_rjnt_11ja78an

ANA315 RJTT-RJNT JA78AN B737-881

20180223_rjnt_12ja78an

堤防の雪が融けて低くなったようです。

RJNT 230200Z VRB01KT 9999 FEW030 06/M04 Q1021

20180223_rjnt_13ja6193

JA6193

20180223_rjnt_14b18655

20180223_rjnt_15b18655

CAL170 RCTP-RJNT B-18655 B737-8MA

20180223_rjnt_16b18655

エンドまでころがって、入換です

20180223_rjnt_17ja78an

20180223_rjnt_18ja78an

ANA1181 RJNT-RJCC JA78AN B737-881

RJNT 230300Z 27009KT 9999 FEW030 06/M05 Q1020

20180223_rjnt_19b18655

20180223_rjnt_20b18655

CAL171 RJNT-RCTP B-18655 B737-8MA

20180223_rjnt_21b18655

RJNT 230400Z 27010KT 9999 FEW030 07/M04 Q1020

20180223_rjnt_22ja6507

午後も、お仕事・・

20180223_rjnt_23ja6507

20180223_rjnt_24ja6507

JA6507 右舷にカメラをつけています。

| | コメント (0) | トラックバック (0)

2018/02/21

懐古 新東京国際空港 2000/10/22 sun

新東京国際空港公団が民営化されて、成田空港株式会社になり、空港名も成田国際空港となりましたね。今では、もう違和感がないのですが、当初は、ださーとも思っていました。そんな新東京国際空港時代の日常を・・

20001022_rjaa_00b2450

デジカメの解像度が悪く、ほとんどREGが読み取れませんので、詳細は省略です。

20001022_rjaa_01jal

この頃主力のスカイクルーザー

20001022_rjaa_02nwa

赤ノース

20001022_rjaa_03jal

ジェーバード

20001022_rjaa_04dal

元祖デルタ航空時代 DC-10からMD-11に変わっていましたね。

20001022_rjaa_05tha

CI前のタイインター

20001022_rjaa_06jal

こいつは、-300かな

20001022_rjaa_07dal

もう一機、デルタ 

20001022_rjaa_08kal

これは、今も変わらない風景かな

20001022_rjaa_09jal

ここでJAL・・ まだ2タミは無かったですね。

20001022_rjaa_10jal

ショートヘッドのJALさん

20001022_rjaa_11cpa

まだ777-300が珍しい頃 最新機材でしたね。

20001022_rjaa_12nwa

手前のノースのタラップ車。暗いグレーの軍用みたいでしたね。

20001022_rjaa_13cdn

カナディアングースのカナディアン航空。翌年にエア・カナダに買収され消滅しました。

| | コメント (0) | トラックバック (0)

2018/02/19

定点 富山空港 2018/2/19 mon

朝の冷え込みが強く、融残った雪が、岩のようになっています。朝日にさそわれて、海を眺めに・・・

RJNT 182300Z 19003KT 140V220 9999 FEW020 SCT070 M01/M07 Q1023

20180219_rjnt_00sea

今日は、いつもになくサーファーさんが多い

20180219_rjnt_01ja62an

クリーンでメデッイク通過・・

20180219_rjnt_02ja62an

ヒート・ドライでギア・ダウン

20180219_rjnt_03ja62an

ANA313 RJTT-RJNT JA62AN B737-881

RJNT 190000Z 17007KT 140V210 9999 FEW020 BKN040 BKN090 M01/M07 Q1023

20180219_rjnt_04ja6516

JA6516 AS350B3 AKF

20180219_rjnt_05ja62an

対岸はまだ雪が多く、脚を踏み入れられません。

20180219_rjnt_06ja62an

20180219_rjnt_07ja62an

ANA316 RJNT-RJTT JA62AN B737-881

RJNT 190100Z 21005KT 9999 FEW020 BKN050 00/M04 Q1023

20180219_rjnt_08ja6516

JA6516

20180219_rjnt_09p3c

ブーン パパスリーさん

20180219_rjnt_10hl7640

AAR102 RKSI-RJAA HL7640 A380-841

20180219_rjnt_11ja57an

ここも、歩いてしか入れません

20180219_rjnt_12ja57an

20180219_rjnt_13ja57an

ANA315 RJTT-RJNT JA57AN B737-881

RJNT 190200Z VRB01KT 9999 FEW020 SCT090 BKN/// 03/M03 Q1023

20180219_rjnt_14tateyama

立山も綺麗に見えています

20180219_rjnt_15b18655

今日は、雪山に登頂させていただきました。

20180219_rjnt_16b18655

20180219_rjnt_17b18655

CAL170 RCTP-RJNT B-18655 B737-8MA

20180219_rjnt_18ja57an

20180219_rjnt_19ja57an

ANA1181 RJNT-RJCC JA57AN B737-881

20180219_rjnt_20ja6193

JA6193 B206B AKF

RJNT 190300Z VRB02KT 9999 FEW020 SCT040 BKN/// 03/M03 Q1021

20180219_rjnt_21ohltm

FIN78 RJBB-EFHK OH-LTM A330-302X

20180219_rjnt_22ja6512

JA6512

RJNT 190400Z VRB02KT 9999 FEW030 BKN060 04/M06 Q1020

20180219_rjnt_23b18655

20180219_rjnt_24b18655

20180219_rjnt_25b18655

CAL171 RJNT-RCTP B-18655 B737-8MA

20180219_rjnt_26ja6512

JA6512/JA6193

20180219_rjnt_27ja6512

ここも雪山登頂しています。

20180219_rjnt_28ja6768

防災さんお出まし・・

20180219_rjnt_29ja6768

わいも、コロコロしたい

20180219_rjnt_30ja6512

JA6512

20180219_rjnt_31ja6512

いっぱい並びました

20180219_rjnt_32ja6193

JA6193

20180219_rjnt_33ja6768

JA6768 B412EP 富山県消防防災

20180219_rjnt_34ja6768

訓練で東の方へ

20180219_rjnt_35ja139t

防災さんが出発したら、すぐ警察さんがお出まし

20180219_rjnt_36ja139t

JA139T AW139 富山県警察

20180219_rjnt_37n451pa

PAC975 EDDP-RJAA N451PA B747-46NF

20180219_rjnt_38ja139t

エンジン・スタート

RJNT 190500Z 36005KT 9999 FEW030 SCT060 04/M05 Q1020

20180219_rjnt_39ja139t

訓練日和ですね・・

20180219_rjnt_40ja139t

いってらっしゃーい

| | コメント (0) | トラックバック (0)

2018/02/18

懐古 かかみがはら航空宇宙博物館 各務原市 2000/10/15 sun

カメラが陳家なので、ずーと岐阜航空祭を見るわけでなく、午後から南側のかかみがはら航空宇宙博物館に立ち寄っていました。現在は、かかみがはら航空宇宙科学博物館と言うそうですが、リニューアルで休館中です。

空想出 かがみはら 2000/10/15

空想出 かがみはら2 2000/10/15

20001015_kakamigahara_00kakamigahar

YSさんのお顔がひょっこり見えています。

20001015_kakamigahara_01ja8731

exJA8731 YS-11A-213 ANK

20001015_kakamigahara_02m4782

動いているのは見たことがないネプチューン

20001015_kakamigahara_03m4782

ex4782 P-2J VP-6

20001015_kakamigahara_04m4782

お尻はぶっといのです。

20001015_kakamigahara_05m4782

先日US-1Aが退役しましたが、一度は飛んでいるところを見てみたかった機体です。

20001015_kakamigahara_06jq8501

建物の中に入って、「飛鳥」

20001015_kakamigahara_07jq8501

NAL航空宇宙技術研究所のSTOL飛行実験機

20001015_kakamigahara_08jq8501

機内を見ると・・ おー、8incFDドライブに紙テープリーダーまで・・

20001015_kakamigahara_09jq8501

コクピットは、母機のC-1とあまり変わらないのかな・・

20001015_kakamigahara_10jq8501

無骨なセンターペデスタル

20001015_kakamigahara_11jq8501

KAWASAKIマークが光ります

20001015_kakamigahara_12jq8501

エンジンも国産のFJR710を4発もしょっています。

20001015_kakamigahara_13f368515

ex36-8515 F-104J APW

20001015_kakamigahara_14f368515

ラムジェネレーターが飛び出しているのが、かわいい

20001015_kakamigahara_15t815221

ex81-5221 T-33A ADTW

なお現在休館中の同館は、3月24日リニューアルオープンで、三度目の改名により、岐阜おおみがはら航空宇宙科学博物館となります。

| | コメント (0) | トラックバック (0)

2018/02/17

懐古 岐阜基地航空祭2000 岐阜飛行場 2000/10/15 sun

このごろは、大仕事の後だったせいか、毎週のように出撃しています。絶好調ですね。しかし、デジカメ撮影は今見るとショボイです。

空思出 岐阜 2000/10/15

20001015_rjng_00h184552

18-4552 UH-60J T-S

20001015_rjng_01c351071

35-1071 C-130H 401SQ

20001015_rjng_02u393042

39-3042 U-125 FCS

20001015_rjng_03e543457

54-3457 E-2C 601SQ

20001015_rjng_04f638501

63-8501 XF-2A ADTW

20001015_rjng_05rm04

RM04 EA-6B VMAQ-4

20001015_rjng_06vk05

VK03 F/A-18D VMFA(AW)-121

20001015_rjng_07vk03

VK05 F/A-18D VMFA(AW)-121

20001015_rjng_08f578357

57-8357 F-4EJ ADTW

20001015_rjng_09t595107

ex59-5107 T-2 ADTW

20001015_rjng_10t965625

96-5625 T-4 ADTW

20001015_rjng_11fly

フライトは、こんな風にしか映らないので、ほとんど撮っていません。

| | コメント (0) | トラックバック (0)

2018/02/16

懐古 愛知茸狩 2000/10/14 sat

既出の記事なのですが、廃止された設備も多いので、振り返ってみます。

空想出 愛知 2000/10/14

空想出2 愛知 2000/10/14

この時は、豊橋からレンタカーを借りて、地図を片手に探検だ。

20001014_aichi_x00mikawaarsr

三河ARSR 三河スカイラインから見えます

20001014_aichi_x01mikawaarsr

当時は、岡崎航空路監視レーダー事務所所管でしたが、岡崎レーダーは2011.4に廃止され現在は、中部空港事務所の中部システム運用管理センター所管となっている。

20001014_aichi_x02mikawaarsr

RCAGもあります

20001014_aichi_x03tobone

三河レーダーの近隣に建設省の遠望峰無線中継所がありました。

20001014_aichi_x04tobone

建設省の自衛網で12G帯マイクロかな?

20001014_aichi_x05xm

山を降りて、知多半島を南下します。名古屋航空無線標識所です。ここの周辺は旧海軍講和海軍航空隊の跡地でもある。1980.4に岡崎航空路監視レーダー事務所設置に伴い廃止された。

20001014_aichi_x06xm

河和NDB(XM)

20001014_aichi_x07xm

向こうに伊勢湾が見えます

20001014_aichi_x08xmc

続いて河和VORTAC(XMC) 現在はVORが廃止されて河和TACAN(XMT)となっている。 2014.2.6

20001014_aichi_x09xmc

遠目から見るとTACANの左側、木々の隙間からVORアンテナが見えています。

20001014_aichi_x10ja8174

ANA1055 PHNL-RJNN JA8174 B747-281B

20001014_aichi_x11ng

名古屋市天白区の住宅街をうろうろしながら探しました。

20001014_aichi_x12ng

愛知NDB(NG) 2005.2.18廃止


| | コメント (0) | トラックバック (0)

2018/02/15

YM 富山市 2018/2/15 thu

本日の事案 消防車のサイレンが聞こえて、遠くからバタバタ・・・ すわっ、ヤンキーマイク!

20180215_mizuhashi_00ja10ym

なんとか着陸に間に合いました。

20180215_mizuhashi_01ja10ym

雪に隠れる白い機体

20180215_mizuhashi_02ja10ym

救急車もすぐ到着

20180215_mizuhashi_03ja10ym

移乗中

20180215_mizuhashi_04ja10ym

エンジンスタート

20180215_mizuhashi_05ja10ym

離陸です

20180215_mizuhashi_06ja10ym

県中搬送の模様

20180215_mizuhashi_07ja10ym

この間10分 今日もヤンキーマイクさんは、空を飛ぶ

| | コメント (0) | トラックバック (0)

2018/02/14

春一番 富山空港 2018/2/14 wed

二日間降り続いた雪は、どこえやら・・・ 朝から眩しい青空が広がっています。

20180214_rjnt_00bay

海鳥さんが仲良く休んでいます。遠景は、少し伸びぎみ。

RJNT 132300Z 18013KT 9999 FEW050 01/M04 Q1021

20180214_rjnt_01ja63an

ライトターンしてMEDIC

20180214_rjnt_02ja63an

ギア・ダウン

20180214_rjnt_03ja63an

ANA313 RJTT-RJNT JA63AN B737-881

RJNT 140000Z 17010KT 130V200 9999 FEW040 02/M04 Q1019

20180214_rjnt_04ja63an

南風が強く、素直にRW20デパーチャー

20180214_rjnt_05ja63an

20180214_rjnt_06ja63an

ANA316 RJNT-RJTT JA63AN B737-881

20180214_rjnt_07ja63an

クライムが綺麗です。

RJNT 140100Z 17008KT 140V200 9999 FEW080 03/M03 Q1019

20180214_rjnt_08ja6512

JA6512 AS350B3 AKF

20180214_rjnt_09ja6512

ちょっと高めの視線から・・

20180214_rjnt_10hl8237

TWB201 RKSI-RJAA HL8237 B737-8

見上げるとエンルートも綺麗

20180214_rjnt_11ja72an

20180214_rjnt_12ja72an

20180214_rjnt_13ja72an

ANA315 RJTT-RJNT JA72AN B737-881

RJNT 140200Z 17007KT 130V200 9999 FEW100 05/M02 Q1019

20180214_rjnt_14b2296

20180214_rjnt_15b2296

20180214_rjnt_16b2296

CSN613 ZYTL-RJNT B-2296 A319-132

20180214_rjnt_17ja6512

お尻がよっつ・・

20180214_rjnt_18ja139t

タンゴさんが訓練から帰ってきました。

20180214_rjnt_19ja139t

JA139T AW139 富山県警察

20180214_rjnt_20ja139t

山岳警備隊も体制強化で課に昇格するって聞きました。

20180214_rjnt_21hakucho

白鳥飛行隊も通過して行きました。

20180214_rjnt_22ja72an

おや02デパーチャーなのね・・

20180214_rjnt_23ja72an

20180214_rjnt_24ja72an

ANA1181 RJNT-RJCC JA72AN B737-881

RJNT 140300Z 17008KT 140V200 9999 FEW100 06/M02 Q1018

20180214_rjnt_25tateyama

立山は強い風で雪が舞うのと、雲がところどころ発生しています。今日の南風が春一番だった模様。

20180214_rjnt_26b2296

あら、南方さんは素直に20デパーチャー

20180214_rjnt_27b2296

20180214_rjnt_28b2296

春節のお客さんも多いのかな・・

20180214_rjnt_29b2296

力強く台地を蹴って・・

20180214_rjnt_30b2296

CSN614 RJNT-ZYTL B-2296 A319-132

20180214_rjnt_31b2296

これも上昇姿勢は、良好。オリンピックじゃ・・ ないって。

| | コメント (0) | トラックバック (0)

2018/02/12

定点 富山空港 2018/2/12 mon

今年第三波の雪降り。前回の雪は、ほとんど融けてしまっていたので、幸いです。

20180212_rjnt_00sea

雪が降ろうと、槍が降ろうと・・ 今日もサーファーは波に乗っています

RJNT 120042Z 18007KT 120V280 2000 -SHSN FEW005 SCT007 BKN009 M01/M03 Q1014 RMK 1CU005 3CU007 5CU009 A2995

20180212_rjnt_01sea

キャー 雪雲につかまった 頭上を313が音だけ残していっちゃいました。

RJNT 120045Z 18007KT 120V280 0800 SHSN VV004 M01/M03 Q1014 RMK A2995

20180212_rjnt_02arv

MEDICで除雪待ちしていたので、ワンタイムでG/A。そのまま羽田リターンとなりました。よって折り返しの316は欠航。あー、陸の孤島に取り残された人多数。

20180212_rjnt_03mrj

MRJともども苦労が絶えません

RJNT 120144Z 17005KT 050V210 0800 SHSN VV004 M02/M02 Q1014 RMK A2995

20180212_rjnt_04sr

すかさず、次の便のために除雪

RJNT 120200Z 18005KT 130V220 1600 -SHSN VV008 M01/M02 Q1014

20180212_rjnt_05sr

瞬間的に雲が晴れる間もありますが・・

20180212_rjnt_06sicar

SIカーが入ると・・

20180212_rjnt_07sicar

折り返して帰ってくる頃には、またしても吹雪いています。

RJNT 120210Z 16003KT 090V210 0800 SHSN VV004 M01/M02 Q1014 RMK A2995

RJNT 120228Z 18004KT 130V240 2500 -SHSN FEW003 SCT005 BKN009 M01/M02 Q1014 RMK 1CU003 3CU005 5CU009 A2995

RJNT 120235Z 17004KT 120V210 0600 SHSN VV003 M01/M02 Q1014 RMK A2994

20180212_rjnt_08ja57an

315もアプローチして来たのですが・・ あえなくG/A

RJNT 120249Z VRB02KT 1400 -SHSN VV007 M01/M02 Q1014 RMK A2994

20180212_rjnt_09ja57an

なんとか再トライで、小康状態の時に当たりました。

20180212_rjnt_10ja57an

20180212_rjnt_11ja57an

ANA315 RJTT-RJNT JA57AN B737-881

RJNT 120307Z 18004KT 100V240 0600 SHSN VV003 M01/M02 Q1013 RMK A2993

後続のダイナさんがアプローチしましたが、機影さえ確認できず、G/A

RJNT 120326Z 18005KT 110V210 0800 SHSN VV004 M01/M02 Q1013 RMK A2993

20180212_rjnt_12b18656

もうミニマ割っていると思われる中を着陸しました。この位置まで機体が確認できませんでした。

20180212_rjnt_13b18656

CAL170 RCTP-RJNT B-18656 B737-8MA

RJNT 120411Z 22008KT 1000 -SHSN VV005 M01/M02 Q1013 RMK A2992

20180212_rjnt_14ja57an

ペイロードが急に増えました。北陸新幹線は最強なのですが、なにせ金沢以西が止まっているため東京廻りの迂回輸送で、大混雑だそうです。316搭乗客は、どうも千歳廻りで救済した模様。

20180212_rjnt_15ja57an

路面は白くなっていますが、除雪せずにいっちゃえーです。

20180212_rjnt_16ja57an

ANA1181 RJNT-RJCC JA57AN B737-881

20180212_rjnt_17ja57an

この後ダイナさんの出発でしたが、降雪が激しく再除雪となりました。小生も帰りが心配なので、見送らずに撤収。15時半頃に出発したようです。明日は、どうなることでしょう?

でも、地上側も必死なのです。これだけ頻繁にSPECIだして、なんとか着陸できるよう支援しています。

RJNT 120400Z 21008KT 0300 SHSN VV002 M01/M02 Q1013
RJNT 120345Z VRB08KT 0700 SHSN VV004 M01/M02 Q1013 RMK A2993
RJNT 120338Z 24008KT 200V280 1000 -SHSN VV005 M01/M02 Q1013 RMK A2993
RJNT 120331Z 24011KT 210V270 0400 SHSN VV002 M01/M02 Q1013 RMK A2993
RJNT 120329Z 18006KT 150V220 0400 SHSN VV002 M01/M02 Q1013 RMK A2993
RJNT 120326Z 18005KT 110V210 0800 SHSN VV004 M01/M02 Q1013 RMK A2993
RJNT 120324Z 18005KT 110V210 1000 -SHSN VV005 M01/M02 Q1013 RMK A2993
RJNT 120322Z 17005KT 110V200 1500 -SHSN VV008 M01/M02 Q1013 RMK A2992
RJNT 120320Z 17005KT 110V210 2000 -SHSN FEW003 SCT005 BKN009 M01/M02 Q1013 RMK 1CU003 3ST005 5CU009 A2992
RJNT 120315Z 17004KT 110V210 3500 -SHSN FEW003 SCT005 BKN009 M01/M01 Q1013 RMK 1CU003 3ST005 5CU009 A2993
RJNT 120312Z 17004KT 100V210 1500 -SHSN VV008 M01/M01 Q1013 RMK A2993
RJNT 120307Z 18004KT 100V240 0600 SHSN VV003 M01/M02 Q1013 RMK A2993
RJNT 120304Z 19004KT 100V240 0800 SHSN VV004 M01/M02 Q1013 RMK A2993
RJNT 120303Z 20004KT 150V240 1400 -SHSN VV007 M01/M02 Q1013 RMK A2994
RJNT 120300Z 20004KT 170V250 2000 -SHSN FEW003 SCT005 BKN007 M01/M02 Q1013
RJNT 120249Z VRB02KT 1400 -SHSN VV007 M01/M02 Q1014 RMK A2994
RJNT 120244Z 16003KT 060V210 0900 SHSN VV005 M01/M02 Q1013 RMK A2994
RJNT 120235Z 17004KT 120V210 0600 SHSN VV003 M01/M02 Q1014 RMK A2994
RJNT 120234Z 17004KT 120V210 0800 SHSN VV004 M01/M02 Q1013 RMK A2994
RJNT 120232Z 17004KT 130V210 2000 -SHSN FEW003 SCT005 BKN007 M01/M02 Q1014 RMK 1CU003 3CU005 5CU007 A2994
RJNT 120228Z 18004KT 130V240 2500 -SHSN FEW003 SCT005 BKN009 M01/M02 Q1014 RMK 1CU003 3CU005 5CU009 A2995
RJNT 120224Z 19005KT 120V240 1500 -SHSN VV008 M01/M02 Q1014 RMK A2994
RJNT 120220Z 18005KT 120V240 0600 SHSN VV003 M01/M02 Q1014 RMK A2995
RJNT 120215Z 15004KT 090V200 0400 SHSN VV002 M01/M02 Q1014 RMK A2995
RJNT 120210Z 16003KT 090V210 0800 SHSN VV004 M01/M02 Q1014 RMK A2995
RJNT 120200Z 18005KT 130V220 1600 -SHSN VV008 M01/M02 Q1014
RJNT 120144Z 17005KT 050V210 0800 SHSN VV004 M02/M02 Q1014 RMK A2995
RJNT 120130Z 20005KT 100V270 0400 SHSN VV002 M02/M03 Q1014 RMK A2996
RJNT 120125Z 17004KT 100V260 1000 -SHSN VV005 M01/M03 Q1014 RMK A2995
RJNT 120120Z 19004KT 100V230 1500 -SHSN VV008 M01/M03 Q1014 RMK A2996
RJNT 120115Z 20004KT 160V230 2000 -SHSN FEW005 SCT007 BKN009 M01/M03 Q1014 RMK 1CU005 3CU007 5CU009 A2995
RJNT 120112Z 19003KT 160V220 3000 -SHSN FEW005 SCT010 BKN015 M01/M03 Q1014 RMK 1CU005 3CU010 5CU015 A2995
RJNT 120100Z 20007KT 160V220 3500 -SHSN FEW005 SCT010 BKN015 M01/M03 Q1014
RJNT 120048Z 23011KT 0500 SHSN VV003 M01/M03 Q1014 RMK A2995
RJNT 120045Z 18007KT 120V280 0800 SHSN VV004 M01/M03 Q1014 RMK A2995
RJNT 120044Z 18007KT 120V280 1400 -SHSN VV007 M01/M03 Q1014 RMK A2995
RJNT 120042Z 18007KT 120V280 2000 -SHSN FEW005 SCT007 BKN009 M01/M03 Q1014 RMK 1CU005 3CU007 5CU009 A2995
RJNT 120030Z 21010KT 6000 -SHSN FEW005 SCT010 BKN030 M01/M03 Q1014 RMK 1CU005 3CU010 5CU030 A2994
RJNT 120020Z 23014KT 190V260 3500 -SHSN FEW005 SCT010 BKN015 M02/M02 Q1014 RMK 1CU005 3CU010 5CU015 A2995
RJNT 120015Z 24014KT 1000 -SHSN VV005 M02/M03 Q1014 RMK A2996
RJNT 120011Z 24013KT 200V260 0300 SHSN VV002 M02/M03 Q1014 RMK A2996
RJNT 120009Z VRB03KT 0300 SHSN VV002 M02/M03 Q1014 RMK A2997
RJNT 120004Z 29003KT 210V030 0600 SHSN VV003 M02/M03 Q1014 RMK A2996

| | コメント (0) | トラックバック (0)

2018/02/11

懐古 沖縄茸狩 2000/10/10 tue

やけくその瀬長島の翌日は、沖縄で茸狩りでドライブ。一応めぼしをつけながら、怪しい施設があれば、特攻をかける旅路です。

空想出 沖縄:知念 2000/10/10

空想出 沖縄:知念2 2000/10/10

20001010_okinawa_x001cb

スタートは、陸自第1混成団前から

20001010_okinawa_x01ok

沖縄NDB(OK) 2012.4.5廃止 那覇から南へ下って糸満市の国道沿いの畑の中にありました。

20001010_okinawa_x02kyanlh

さらに下って 喜屋武埼灯台

20001010_okinawa_x03kyanlh

施設説明板もありました

20001010_okinawa_x04jcg

海上保安庁のELT受信設備

20001010_okinawa_x05jcg

今は南城市にあります

20001010_okinawa_x06jayozadake

ゴルフ場越しに見るレドーム

20001010_okinawa_x07jayozadake

今はガメラレーダー運用の航空自衛隊与座岳分屯基地

20001010_okinawa_x08jgminamiyoza

第6高射特科群第326高射中隊が駐屯

20001010_okinawa_x09

どこだかよく判らない通信施設

20001010_okinawa_x10itokasur

糸数気象レーダー観測所

20001010_okinawa_x11chinensb

航空自衛隊知念分屯基地(管理地区)

20001010_okinawa_x12f268506

ゲートガードにF-104 26-8506

20001010_okinawa_x13sashiki

ここは基地内に佐敷ようどれがあり、見学が可能です。

20001010_okinawa_x14sashiki

全体は、こんなん

20001010_okinawa_x15chinensb

こちらは、運用地区 第5高射群第16高射隊、第18高射隊

20001010_okinawa_x16chinensb

空自の南側にこちらは、陸自知念分屯地 第6高射特科群第325高射中隊所在

20001010_okinawa_x17nhc

少し西へ行って沖縄刑務所至近に 知念VORTAC(TIC)

20001010_okinawa_x18nhc

現在はVORが廃止された 知念TACAN(TIT) 2013.2.7となっている

20001010_okinawa_x19inafukudaichi

知念岬を遠望

20001010_okinawa_x20inafuku

これ知ってる?? 航空局の稲福無線中継所

20001010_okinawa_x21inafuku

那覇と八重岳を結んでいるマイクロの模様

20001010_okinawa_x22inafuku

こちらは短波帯のアンテナですが、現在は存在しない模様。

20001010_okinawa_x23kesaji

最後は、ずーと北上して海上保安庁慶佐次ロランC局

20001010_okinawa_x24kesaji

日本最後のロランC局は、2015.2.1に廃止されました。

20001010_okinawa_x25naha

さて、お帰りはこれに乗ったと思われるのですが・・ 塗装からJEX機なのかな・・

| | コメント (0) | トラックバック (0)

2018/02/09

懐古 秋空 那覇空港 2000/10/9 mon

空想出 青空と雲 2000/10/9

空想出2 青空と雲 2000/10/9

いやー、我ながらよく出かけてますなー。仙台、明野周りの翌週は、一気に那覇に飛んでいました。

20001009_roah_00arv

JAL931便で沖縄入りですが・・

20001009_roah_01jta

手前の機体ですが、機番等の記録が見つかりません・・

20001009_roah_02mcasf

今回の目的は、普天間フライトラインデーの予定が・・・ トホホな結末

仕方がないので、午後から気を取り直して瀬長島で鉄鳥狩り

20001009_roah_03ja8238

JA8239 B767-281 ANA 機番の判別できたものだけ紹介です。

20001009_roah_05ja8939

JA8939 B737-4Q3 JTA 元祖ジンべエです

20001009_roah_06ja8366

JA8366 B737-205 JTA

20001009_roah_07ja8241

JA8241 B767-281 ANA

20001009_roah_08ja5234

JA5234 PA-34-200 KNK

20001009_roah_09ja8930

JA8930 B737-4K5 JTA

20001009_roah_10ja011d

JA011D A300B4-622R JAS

20001009_roah_11ja8268

JA8268 B767-346 JAL

20001009_roah_12ja8153

JA8153 B747SR-81 ANA

20001009_roah_13ja8973

JA8973 DHC8-103Q RAC

20001009_roah_14ja8173

JA8173 B747-346 JAL

20001009_roah_15ja8257

JA8257 B767-381 ANA

20001009_roah_24ja8156

JA8156 B747SR-81 ANA

20001009_roah_25ja8255

JA8255 B767-281 ANA  後にスカイマーク

20001009_roah_26ja8288

JA8288 B767-381 ANA

ポケモンジェット99でお別れです。

| | コメント (0) | トラックバック (0)

2018/02/08

定点 富山空港 2018/2/8 thu

今年第三波の雪は、越前から加賀にかけて大きな影響を及ぼしております。富山は、いつもよりは多いものの、なんとか暮らせる状態です。但し、物流が停滞しているので、スーパーで牛乳が無くなっています。

RJNT 072300Z 17004KT 110V200 9999 -SHSN FEW005 SCT010 BKN060 M02/M07 Q1021

20180208_rjnt_00bay

朝も冷え込んでいるのですが、人海豚が波乗りに興じております。

20180208_rjnt_01bay

うねりがあって、テトラに弾けています。

20180208_rjnt_02ja77an

ANA313 RJTT-RJNT JA77AN B737-881

RJNT 080000Z 17004KT 120V210 9999 FEW010 SCT030 BKN090 M02/M07 Q1021

20180208_rjnt_03ja77an

富山空港は、平常運用

20180208_rjnt_04ja77an

20180208_rjnt_05ja77an

ANA316 RJNT-RJTT JA77AN B737-881

20180208_rjnt_06dep

およよ、昨日欠航した南方さんが、今日運航です。

RJNT 080100Z 18009KT 130V200 9999 FEW010 SCT030 BKN060 M01/M07 Q102

20180208_rjnt_07koen

緑地公園では、子供用のそりスロープを造成中

20180208_rjnt_08ja53an

20180208_rjnt_09ja53an

20180208_rjnt_10ja53an

ANA315 RJTT-RJNT JA53AN B737-881

20180208_rjnt_11ja6516

JA6516 AS350B3 AKF

RJNT 080200Z 18004KT 9999 VCSH FEW010 SCT020 BKN040 01/M05 Q1021

20180208_rjnt_12b18615

20180208_rjnt_13b18615

20180208_rjnt_14b18615

CAL170 RCTP-RJNT B-18615 B737-809

20180208_rjnt_15ja53an

20180208_rjnt_16ja53an

20180208_rjnt_17ja53an

20180208_rjnt_18ja53an

ANA1181 RJNT-RJCC JA53AN B737-881

RJNT 080300Z 22004KT 9999 -SHSN FEW010 SCT020 BKN040 02/M04 Q1021

20180208_rjnt_19koen

スロープほぼ完成・・ 青空が開けてきました。

20180208_rjnt_20b1418

CCA951 ZYTL-RJAA B-1418 B737-89L

RJNT 080400Z 11005KT 090V150 9999 FEW010 SCT020 03/M04 Q1021

20180208_rjnt_21b18615

20180208_rjnt_22b18615

20180208_rjnt_23b18615

CAL171 RJNT-RCTP B-18615 B737-809

20180208_rjnt_24e2d

ダイナさん離陸時にブーン・・・ あ、小皿さんだ と、思ったら飴ちゃんですよ。

20180208_rjnt_25b18615

青空に突き刺さるように上昇して行きます。地震被害御見舞申し上げます。

20180208_rjnt_26bljn

CPA2091 PANC-VHHH B-LJN B747-867F

20180208_rjnt_27b9912

今日は臨時便となった南方さん・・ と、言うことは

20180208_rjnt_28b9912

ちょっと大きめ

20180208_rjnt_29b9912

CSN613 ZYTL-RJNT B-9912 A320-232

所要があるので、到着だけ見て離脱です。

RJNT 080500Z 06005KT 010V100 9999 -SHSN FEW010 SCT020 BKN040 04/M06 Q1021

20180208_rjnt_30hitsuji

ターミナルでは、富山県がロケ地の映画「羊の木」の紹介。期せずして、情熱の場面が・・・

20180208_rjnt_31hitsuji

魚津市役所職員が主人公です。彼女は元殺人犯の一人。

| | コメント (0) | トラックバック (0)

2018/02/07

懐古 明野駐屯地開設45周年記念行事 2000/10/1 sun

まずは、5日に起きた佐賀での墜落事故の犠牲に際し、お悔やみ申し上げます。昨今、増えている事故について、抜本的な対策を講じられんことを切に望みます。

さて、懐古シリーズを再開。仙台から関空に飛んで、翌日近鉄を乗り継いで明野に行っていたようです。

空想出 明野駐屯地 2000/10/1

空想出2 明野駐屯地 2000/10/1

20001001_rjoe_x00akeno

標題の記念行事ですが、次の記念も併せてです。陸上自衛隊創隊50周年、航空学校創立48周年。

20001001_rjoe_x02jg00003g

JG00003 AS332L ST

20001001_rjoe_x03ja007r

JA007R R44

20001001_rjoe_x04jg52909

JG52909 CH-47J SK

20001001_rjoe_x05jg31128

JG31128 OH-6D S

20001001_rjoe_x06ja003m

JA003M MH2000A MHI

20001001_rjoe_x07ja11ar

JA11AR S-2B

20001001_rjoe_x08ja9979

JA9979 BK117-C1 CEH

20001001_rjoe_x09jg32605

JG32605 OH-1 S

20001001_rjoe_x10jg73454

JG73454 AH-1S S

20001001_rjoe_x11ajg

航過飛行

20001001_rjoe_x11bjg

 

しんがりにLR-2も飛んでいました。

20001001_rjoe_x11ja11ar

JA11AR  航過飛行の後は、ロックさんのショー

20001001_rjoe_x12flt

航過編隊が帰ってきました。

20001001_rjoe_x13oh1

なんか、OH-1の飛んでるところ・・ 最近見た記憶がない

20001001_rjoe_x14oh6

まだまだOH-6が主役

20001001_rjoe_x15ah

模擬戦闘は、コブラ大活躍

20001001_rjoe_x16ja3859

JA3859 Bellanca 7GCBC Citabria

20001001_rjoe_x17oh6

スーパーホーネットの展示もありました

20001001_rjoe_x18jg22007

JG22007 LR-1 M

20001001_rjoe_x19jg43103

JG43103 UH-60JA S

20001001_rjoe_x20akeno

午後は、技本格を眺めながら・・ 茸狩りに

20001001_rjoe_x21ak

見えて来ました・・ 明野NDB(AK)

20001001_rjoe_x22ak

伊勢市立豊浜中学校の脇にあります。

#####

| | コメント (0) | トラックバック (0)

2018/02/02

定点 富山空港 2018/2/2 fri

如月に入りましたが、これまた稀な青空が広がっております。

RJNT 012300Z VRB02KT 9999 FEW030 M01/M04 Q1025

20180202_rjnt_00bay_2

富山湾は静かなウインターブルー

20180202_rjnt_01fs

波を蹴立てる日本の漁船 

20180202_rjnt_02ja60an

今日は、高め FL200でURUSI

20180202_rjnt_03ja12rj

IBX35 RJSS-RJOA JA12RJ CRJ-702ER

FL320でもアイベックスは目立ちます

20180202_rjnt_04ja60an

ANA313 RJTT-RJNT JA60AN B737-881

RJNT 020000Z 31002KT 9999 FEW030 M00/M04 Q1024

20180202_rjnt_05hl8088

JJA1102 RKSI-RJAA HL8088 B737-8AS

20180202_rjnt_06ja60an

20180202_rjnt_07ja60an

20180202_rjnt_08ja60an

ANA316 RJNT-RJTT JA60AN B737-881

RJNT 020100Z 36003KT 9999 FEW030 02/M03 Q1024

20180202_rjnt_09ja6516

JA6516 AS350B3 AKF

20180202_rjnt_10jg43114

山も綺麗です・・ わー小さくて見えない?

20180202_rjnt_11jg43114

陸自の飛龍さんとキャリアさんが南に向けて飛んで行きました。

20180202_rjnt_12ja54an

20180202_rjnt_13ja54an

20180202_rjnt_14ja54an

ANA315 RJTT-RJNT JA54AN B737-881

RJNT 020200Z VRB02KT 9999 FEW030 04/M04 Q1023

20180202_rjnt_15b2285

CSN629 ZYTL-RJAA B-2285 A321-231

20180202_rjnt_16b18665

20180202_rjnt_17b18665

20180202_rjnt_18b18665

CAL170 RCTP-RJNT B-18665 B737-8AL

20180202_rjnt_19hl7643

KAL703 RKSI-RJAA HL7643 B747-8B5

20180202_rjnt_20ja54an

20180202_rjnt_21ja54an

20180202_rjnt_22ja54an

ANA1181 RJNT-RJCC JA54AN B737-881

RJNT 020300Z 29003KT 250V350 9999 FEW030 05/M03 Q1023

20180202_rjnt_23b18665

20180202_rjnt_24b18665

CAL171 RJNT-RCTP B-18665 B737-8AL

RJNT 020400Z 35004KT 9999 FEW030 SCT/// 05/M03 Q1022

20180202_rjnt_25ja6516

JA6516

あさひさんは3機飛びましたが、外にはこれでした

20180202_rjnt_26ja6768

JA6768 B412EP 富山県消防防災

お昼を少し廻ってから活動したみたいです。


| | コメント (0) | トラックバック (0)

2018/02/01

懐古 仙台空港 2000/9/30 sat

2000年の秋。この頃は、毎週のように遠征していたみたいで、道東から帰った翌週は、仙台空港に行っていました。過去に振り返り投稿していましたが、再度懐古してみます。

空点描 仙台空港 2000/9/30

20000930a_rjss_00sd

仙台NDB(SD) 2005.10.27廃止

20000930a_rjss_01sd

この対空通信塔の傍まで入る道がありました。

20000930a_rjss_02ja8496

JAS671 RJOO-RJSS JA8496 MD-81

20000930a_rjss_03ja8669

ANA720 RJCC-RJSS JA8669 B767-381

20000930a_rjss_04iwanuma

その横には陸上自衛隊の岩沼訓練場。格納庫が一棟あるだけですが、ハイチPKO等で装備品空輸の拠点に使われるようです。

20000930a_rjss_05iwanuma

航空保安大岩沼分校方面を見る

20000930a_rjss_06iwanuma

岩沼分校の正門

20000930a_rjss_07iwanuma

空港にある航空保安施設の実習施設が一通りあります。

20000930a_rjss_08rw30

サブラン RW30エンド

20000930a_rjss_09rjss

空港入り口 旧ターミナルが管制棟の前にありました。

20000930a_rjss_10sde

仙台VOR/DME(SDE)

20000930a_rjss_11rjss

国際線のアライバル

20000930a_rjss_12rjss

歩いてエプロン東側脇へ

20000930a_rjss_13ja8547

JAZ55 PHNL-RJSS JA8547 DC10-40I

20000930a_rjss_14rjss

ターミナル反対側の場周

20000930a_rjss_15aar

AAR152 RKSI-RJSS HL???? B767-38E

20000930a_rjss_16aar

上記の離陸

20000930a_rjss_17bhse

HDA320 VHHH-RJSS B-HSE A320-232

20000930a_rjss_18ja8324

ANA367 RJNN-RJSS JA8324 B767-381

20000930a_rjss_19ja3992

JA3992 PA-46-310P

20000930a_rjss_20ja8496

JAS462 RJSS-RJNN JA8297 MD-81

20000930a_rjss_21bhse

HDA321 RJSS-VHHH B-HSE A320-232

20000930a_rjss_22aar

アシアナのカーゴもやって来ていました。

20000930a_rjss_23ja304k

ANK312 RJSS-RJNK JA304K B737-54K

20000930a_rjss_24ja8993

JEX847 RJSS-RJCC JA8993 B737-446

20000930a_rjss_25fin

FRI3003 RJBB-RJSS JA01RJ CRJ-100LR

20000930a_rjss_26dep

この後、先のCRJに乗って、関空まで飛んだようです。

20000930a_rjss_27aar

搭乗のCRJからアシアナカーゴ

FRI3006 RJSS-RJBB JA01RJ CRJ-100LR

以上

| | コメント (0) | トラックバック (0)

趣味的航空路誌改訂情報 2018/2/1 thu

趣味的航空路誌改訂情報 2018/2/1 thu
2月1日の航空路誌改訂から、めぼしいものをピックアップ。これはあくまでも小生が趣味的にメモとして記録しているものです。

○日出没時刻表の更新

○航空図一覧表の更新

○RNAV1 経路及びRNAV5 経路の運用の記載事項の変更

○気象観測装置の更新
RVR 高松、松山

○三沢VORTAC(MIS) の記載事項の変更

○徳島TACAN(TSC) の制限事項の変更

○気象観測用気球の浮揚の記載事項の変更

○RNAV 経路の設定等
Establishment of RNAV route : Y455
Revision of RNAV route : Y15, Y151
Critcal DME, DME GAP : Y13, Y130, Y14, Y142, Y23, Y25, Y256, Y26, Y281, Y285, Y295, Y322, Y324, Y351, Y37

○位置通報点の設定等
Establishment of reporting point;
KADAR カダー, MAJOH マジョ
IROHA イロハ, YOGAN ヨーガン, ZAIHO ザイホー
Revision of reporting point;
AGATE, BLOND, JANET, JENNY, LUIGE, ZELDA
AMMON, DAIBU, EDARR, ITTOH, UTIBO
Abolishment of reporting point; MURAO

○奄美空港におけるINS チェックポイントの変更等

○函館空港における飛行場障害物の更新

○岩国飛行場における飛行の方式にかかる情報の変更
RNAV(GPS) RWY02

○鹿児島空港における飛行の方式の設定等
JOKER TRANSITION
Establishment → AIRA ONE DEPARTURE
MIDAI ONE RNAV DEPARTURE → MIDAI TWO DEPARTURE
SIMAZ NORTH ARRIVAL
SIMAZ SOUTH ARRIVAL
Establishment → KINKOH ARRIVAL
OGOJO ARRIVAL
YUKSA ARRIVAL
OIDON ARRIVAL
ILS Z or LOC Z RWY34
ILS X or LOC X RWY34 → Abolishment
VOR/DME RWY34 (COR RWY symbol)
VOR/DME A (COR RWY symbol)
VOR/DME C (COR RWY symbol)
RNAV(GNSS) RWY16
KINKO VISUAL RWY34

○関西国際空港における飛行の方式の設定等
DANDE ALFA ARRIVAL
DANDE BRAVO ARRIVAL
ILS Z or LOC Z RWY06L(CAT Ⅱ )
ILS Y or LOC Y RWY06L(CAT Ⅱ )
ILS Z or LOC Z RWY06R(CAT Ⅱ )
ILS Y or LOC Y RWY06R(CAT Ⅱ )
ILS Z or LOC Z RWY24L(CAT Ⅱ )
ILS X or LOC X RWY24L(CAT Ⅱ ) → ILS Y or LOC Y RWY24L(CAT Ⅱ )
ILS Z or LOC Z RWY24R(CAT Ⅱ )
ILS X or LOC X RWY24R(CAT Ⅱ ) → ILS Y or LOC Y RWY24R(CAT Ⅱ )
VOR RWY06R
VOR RWY24L
Establishment → RNAV(GNSS) RWY06L
Establishment → RNAV(GNSS) RWY24R
HLDG PATTERN

○関西国際空港における局地交通諸規則の改正

○熊本空港における飛行場障害物図の更新

○三原VOR/DME(OSE) の制限事項の変更等

○三沢飛行場におけるATS 通信施設の記載事項の変更等

○大島空港における飛行の方式の改正等
ITTOH TWO DEPARTURE → Abolishment
UTIBO ONE DEPARTURE → Abolishment
VOR/DME/LOC RWY03
VOR A
VOR B

○屋久島空港における標準計器出発方式の改正
KAGOSHIMA FIVE DEPARTURE → KAGOSHIMA SIX DEPARTURE
AMMON ONE RNAV DEPARTURE → AMMON TWO RNAV DEPARTURE

○山形空港における目視位置通報点の改正

○山口宇部空港における飛行場障害物の更新

【3月25日から有効】

○山形空港における運用時間の変更等
2300 - 1100

□臨時試験空域の設定について(紀伊半島沖)
2016.3.3 - 2018.3.30
MRJ-200型機の試験飛行のため臨時試験飛行空域が設定される
紀伊半島沖臨時試験空域

□東京国際空港における標準計器出発方式の一時変更について
東京国際空港近傍にクレーンが設置されることに伴い、同空港における標準計器出発方式が以下のとおり一時変更される
2017.7.20 - 2018.4.25
(1)SEKID TWO DEPARTURE
(2)MITOH TWO DEPARTURE
2017.9.14 - 2018.4.25
(1)SEKID TWO DEPARTURE
(2)MITOH TWO DEPARTURE

□宇都宮飛行場におけるターミナルレーダー管制業務の運用休止について
宇都宮ターミナルレーダー管制業務は、定期整備のため次の期間運用休止される。
2017.6.22 - 2018.4.18

□三原VOR/DME(OSE)の運用再開
三原VOR/DME(OSE)の運用再開 2018.2.1

□百里VORTAC(HUC)の運用休止及び代替措置について
百里VORTACのうち百里TACAN(HUC)の運用休止 2017.11.9 - 2018.7.18
百里VORTACのうち百里TACAN(HUC)、工事のため運用休止される
代替TACANの一時運用 百里TACAN(ZZT)
MSASの一時運用
百里飛行場における標準計器出発方式及び転移経路の一時変更
OGITU ONE DEPARTURE
HOKTA THREE DEPARTURE
HYAKURI REVERSAL FOUR DEPARTURE
百里飛行場における標準計器到着方式の一時変更
DAIGO ARRIVAL
百里飛行場における計器進入方式の一時設定
VOR C
百里飛行場における計器進入方式の一時変更
ILS Z or LOC Z RWY03R
ILS Y or LOC Y RWY03R
ILS W or LOC W RWY03R
TACAN Z RWY03R
TACAN Y RWY03R
TACAN Z RWY03L
TACAN Y RWY03L
TACAN Z RWY21L
TACAN Y RWY21L
TACAN Z RWY21R
TACAN Y RWY21R
TACAN A

□名古屋VORTAC(KCC)の運用休止及び代替措置について
名古屋VORTACは、工事のため次の期間運用休止される 2018.1.4 - 2018.3.28
代替に仮設小牧VOR/DME(CME)が運用される
エンルート待機経路の一時設定
中部国際空港における標準計器出発方式及び転移経路の一時変更
ESPAN ONE DEPARTURE
KAROS ONE DEPARTURE
NAGOYA FOUR DEPARTURE
CASTLE ONE DEPARTURE
MORIZ ONE DEPARTURE
OREST ONE DEPARTURE
MODEL ONE DEPARTURE
KROBE TRANSITION
OHEI TRANSITION
CHAUS TRANSITION
NSYU TRANSITION
岐阜飛行場における転移経路の一時変更
OTSU TRANSITION
KOMATSU TRANSITION
NIIGATA TRANSITION
名古屋飛行場における標準計器出発方式及び転移経路の一時変更
IBUKI THREE DEPARTURE
OTSU TRANSITION
KOMATSU TRANSITION
HOUBA THREE DEPARTURE
MORIZ FOUR DEPARTURE
TALMI THREE DEPARTURE
KROBE TRANSITION
NIIGATA TRANSITION
HAMAMATSU TRANSITION
CHAUS TRANSITION
ALPUS TRANSITION
SHIMA TRANSITION
名古屋飛行場における標準計器到着方式の一時変更
EXPOH NORTH ARRIVAL
EXPOH SOUTH ARRIVAL
DIMAC NORTH ARRIVAL
DIMAC SOUTH ARRIVAL
名古屋飛行場における計器進入方式の一時変更
ILS Z or LOC Z RWY34
VOR RWY34
VOR A
大阪国際空港における転移経路の一時変更
OTSU FIVE DEPARTURE
KOMATSU TRANSITION
MINAC THREE DEPARTURE
NAGOYA TRANSITION
静岡空港における標準計器到着方式の一時変更
BAIKU ARRIVAL
ENSYU ARRIVAL
SHIZUOKA ARRIVAL
OHCHA ARRIVAL
IZU ARRIVAL
八尾空港における標準計器出発方式の一時変更
ASUKA SIX DEPARTURE

□美保レーダーにおいて使用する周波数の一時変更について
美保レーダー装置の工事のため、GCA-ASR PARの周波数が一時的に変更される
2018.1.25 - 2018.4.25

□仙台空港における飛行の方式の一時変更について
仙台空港近傍においてクレーンが設置されることに伴い、飛行の方式の一時変更を行う
- 2018.4.25
標準計器出発方式の一時変更 - 2018.2.28
IWAKI SEVEN DEPARTURE
SENDAI REVERSAL SIX DEPARTURE
計器進入方式の一時変更 2018.1.4 - 2018.4.25
(1)ILS Z or LOC Z RWY27
(2)ILS Y or LOC Y RWY27
(3)VOR RWY27
(4)RNAV(GNSS) Z RWY09

□東京ILS-RWY 34Rのカテゴリーダウンについて
京ILS-RWY 34Rは、工事のため次の期間CATIIIから CATIIにカテゴリーダウンされる。
2018.3.1 - 2018.9.12

| | コメント (0) | トラックバック (0)

« 2018年1月 | トップページ | 2018年3月 »